Time;durP1;ratioP1;P1;durP2;ratioP2;P2;SDS_P1;SDS_P2;PMS_P1;PMS_P2;Temp;Humidity;BMP_temperature;BMP_pressure;BME280_temperature;BME280_humidity;BME280_pressure;Samples;Min_cycle;Max_cycle;Signal;HPM_P1;HPM_P2
2023/07/18 00:01:30;;;;;;;2.87;2.03;;;17.40;99.90;;;;;;5037685;28;20216;-65
2023/07/18 00:03:56;;;;;;;3.30;2.10;;;17.40;99.90;;;;;;5037970;28;20616;-65
2023/07/18 00:06:24;;;;;;;2.30;2.10;;;17.40;99.90;;;;;;5031862;28;20204;-65
2023/07/18 00:08:50;;;;;;;6.20;2.47;;;17.30;99.90;;;;;;5037588;28;20564;-67
2023/07/18 00:11:15;;;;;;;4.67;2.53;;;16.90;99.90;;;;;;5029644;28;20312;-65
2023/07/18 00:13:41;;;;;;;2.70;2.20;;;16.70;99.90;;;;;;5035118;28;20206;-65
2023/07/18 00:16:06;;;;;;;2.90;2.00;;;16.70;99.90;;;;;;5037753;28;20715;-65
2023/07/18 00:18:32;;;;;;;3.70;2.20;;;16.70;99.90;;;;;;5034672;28;20283;-65
2023/07/18 00:20:57;;;;;;;3.73;2.57;;;16.70;99.90;;;;;;5031600;28;20198;-66
2023/07/18 00:23:23;;;;;;;6.20;2.53;;;16.50;99.90;;;;;;5041429;28;20196;-67
2023/07/18 00:25:48;;;;;;;2.93;2.10;;;16.50;99.90;;;;;;5035110;28;20603;-66
2023/07/18 00:28:14;;;;;;;4.87;2.37;;;16.50;99.90;;;;;;5040109;28;20306;-66
2023/07/18 00:30:39;;;;;;;3.37;2.03;;;16.50;99.90;;;;;;5035402;28;20566;-66
2023/07/18 00:33:05;;;;;;;2.30;2.10;;;16.70;99.90;;;;;;5039579;28;20237;-66
2023/07/18 00:35:31;;;;;;;3.47;2.40;;;16.80;99.90;;;;;;5039188;28;20202;-66
2023/07/18 00:37:57;;;;;;;10.17;4.33;;;16.90;99.90;;;;;;5044140;28;20668;-65
2023/07/18 00:40:22;;;;;;;3.70;2.07;;;16.90;99.90;;;;;;5044196;28;20201;-64
2023/07/18 00:42:48;;;;;;;4.07;2.27;;;16.60;99.90;;;;;;5043325;28;20195;-63
2023/07/18 00:45:14;;;;;;;3.93;2.43;;;16.30;99.90;;;;;;5036399;28;20592;-80
2023/07/18 00:47:42;;;;;;;3.63;2.20;;;16.20;99.90;;;;;;5036060;28;20199;-78
2023/07/18 00:50:10;;;;;;;3.33;2.90;;;16.30;99.90;;;;;;5036821;28;20210;-65
2023/07/18 00:52:47;;;;;;;3.13;2.83;;;16.30;99.90;;;;;;5040545;28;20198;-64
2023/07/18 00:55:14;;;;;;;3.67;2.20;;;16.30;99.90;;;;;;5041913;28;20254;-65
2023/07/18 00:57:41;;;;;;;3.57;2.23;;;16.30;99.90;;;;;;5041667;28;20278;-64
2023/07/18 01:00:11;;;;;;;3.17;2.10;;;16.20;99.90;;;;;;5041742;28;20257;-64
2023/07/18 01:02:38;;;;;;;3.67;2.37;;;16.20;99.90;;;;;;5041547;28;20617;-65
2023/07/18 01:05:03;;;;;;;2.73;2.20;;;16.20;99.90;;;;;;5043658;28;20203;-66
2023/07/18 01:07:29;;;;;;;3.20;2.53;;;16.00;99.90;;;;;;5043325;28;20677;-64
2023/07/18 01:10:12;;;;;;;3.03;2.20;;;16.00;99.90;;;;;;5044056;28;20199;-64
2023/07/18 01:12:38;;;;;;;3.37;2.27;;;15.90;99.90;;;;;;5034863;28;20209;-65
2023/07/18 01:15:04;;;;;;;3.93;2.77;;;15.80;99.90;;;;;;5041083;28;20559;-63
2023/07/18 01:17:30;;;;;;;2.93;2.63;;;15.80;99.90;;;;;;5041135;28;20260;-66
2023/07/18 01:19:55;;;;;;;3.37;2.37;;;15.90;99.90;;;;;;5043708;28;20187;-67
2023/07/18 01:22:21;;;;;;;6.10;2.93;;;15.80;99.90;;;;;;5043237;28;20195;-66
2023/07/18 01:24:46;;;;;;;3.20;2.87;;;15.50;99.90;;;;;;5041737;28;20221;-65
2023/07/18 01:27:12;;;;;;;4.93;2.47;;;15.40;99.90;;;;;;5038770;28;20214;-66
2023/07/18 01:29:37;;;;;;;3.90;2.57;;;15.50;99.90;;;;;;5038123;28;20215;-65
2023/07/18 01:32:03;;;;;;;3.53;2.40;;;15.60;99.90;;;;;;5036120;28;20217;-64
2023/07/18 01:34:28;;;;;;;2.43;2.20;;;15.70;99.90;;;;;;5039388;28;20280;-65
2023/07/18 01:36:54;;;;;;;4.33;2.80;;;15.50;99.90;;;;;;5033566;28;20203;-64
2023/07/18 01:39:20;;;;;;;4.00;2.63;;;15.40;99.90;;;;;;5040614;28;20207;-64
2023/07/18 01:41:45;;;;;;;4.03;2.97;;;15.30;99.90;;;;;;5039854;28;20202;-64
2023/07/18 01:44:11;;;;;;;3.20;2.90;;;15.30;99.90;;;;;;5031127;28;20203;-65
2023/07/18 01:46:36;;;;;;;3.57;2.93;;;15.20;99.90;;;;;;5039873;28;20680;-65
2023/07/18 01:49:02;;;;;;;4.27;2.70;;;15.30;99.90;;;;;;5040268;28;20244;-66
2023/07/18 01:51:28;;;;;;;3.80;2.67;;;15.30;99.90;;;;;;5038282;28;20587;-65
2023/07/18 01:53:53;;;;;;;4.07;2.50;;;15.30;99.90;;;;;;5031836;28;20657;-65
2023/07/18 01:56:18;;;;;;;2.97;2.70;;;15.40;99.90;;;;;;5039677;28;20198;-66
2023/07/18 01:58:44;;;;;;;3.60;2.67;;;15.10;99.90;;;;;;5040049;28;20207;-65
2023/07/18 02:01:09;;;;;;;4.10;2.47;;;14.90;99.90;;;;;;5039975;28;20199;-65
2023/07/18 02:03:35;;;;;;;3.30;2.47;;;14.80;99.90;;;;;;5036961;28;20205;-65
2023/07/18 02:06:01;;;;;;;3.63;2.70;;;15.00;99.90;;;;;;5039688;28;20191;-65
2023/07/18 02:08:26;;;;;;;3.73;2.60;;;15.00;99.90;;;;;;5039874;28;20246;-65
2023/07/18 02:10:52;;;;;;;4.53;2.27;;;15.10;99.90;;;;;;5032551;28;20266;-65
2023/07/18 02:13:17;;;;;;;4.07;2.97;;;15.10;99.90;;;;;;5038300;28;20191;-66
2023/07/18 02:15:43;;;;;;;3.37;2.70;;;15.20;99.90;;;;;;5038541;28;20691;-65
2023/07/18 02:18:08;;;;;;;3.07;2.40;;;15.00;99.90;;;;;;5034655;28;20199;-66
2023/07/18 02:20:33;;;;;;;3.27;2.90;;;15.00;99.90;;;;;;5039166;28;20766;-67
2023/07/18 02:23:00;;;;;;;6.47;2.70;;;15.00;99.90;;;;;;5031334;28;20188;-66
2023/07/18 02:25:28;;;;;;;3.63;2.77;;;15.10;99.90;;;;;;5038394;28;20252;-66
2023/07/18 02:27:53;;;;;;;4.50;2.83;;;15.30;99.90;;;;;;5035423;28;20215;-66
2023/07/18 02:30:19;;;;;;;3.60;2.67;;;15.50;99.90;;;;;;5039106;28;20693;-64
2023/07/18 02:32:44;;;;;;;3.43;2.77;;;15.30;99.90;;;;;;5017550;28;20194;-72
2023/07/18 02:35:15;;;;;;;2.90;2.37;;;15.10;99.90;;;;;;5039648;28;20230;-71
2023/07/18 02:37:40;;;;;;;3.13;2.87;;;15.10;99.90;;;;;;5032321;28;20699;-75
2023/07/18 02:40:09;;;;;;;3.27;2.97;;;15.10;99.90;;;;;;5035450;28;20199;-70
2023/07/18 02:42:35;;;;;;;4.73;2.53;;;14.90;99.90;;;;;;5034242;28;20219;-70
2023/07/18 02:45:01;;;;;;;2.90;2.60;;;14.70;99.90;;;;;;5038316;28;20310;-70
2023/07/18 02:47:26;;;;;;;3.40;3.00;;;14.70;99.90;;;;;;5034936;28;20625;-69
2023/07/18 02:49:52;;;;;;;5.00;3.33;;;14.70;99.90;;;;;;5036319;28;20191;-69
2023/07/18 02:52:17;;;;;;;5.47;3.20;;;14.80;99.90;;;;;;5022131;28;20206;-75
2023/07/18 02:54:43;;;;;;;3.23;2.70;;;14.80;99.90;;;;;;5040744;28;20218;-77
2023/07/18 02:57:08;;;;;;;3.13;2.73;;;14.90;99.90;;;;;;5025854;28;20263;-73
2023/07/18 02:59:34;;;;;;;4.40;3.20;;;15.10;99.90;;;;;;5033445;28;20211;-73
2023/07/18 03:01:59;;;;;;;3.83;2.63;;;15.10;99.90;;;;;;5037859;28;20194;-74
2023/07/18 03:04:28;;;;;;;4.00;2.97;;;15.00;99.90;;;;;;5032454;28;20642;-73
2023/07/18 03:06:54;;;;;;;4.50;3.00;;;14.80;99.90;;;;;;5019665;28;20681;-75
2023/07/18 03:09:21;;;;;;;4.00;2.93;;;14.70;99.90;;;;;;5032845;28;20229;-73
2023/07/18 03:11:47;;;;;;;3.17;2.53;;;14.90;99.90;;;;;;5036927;28;20199;-74
2023/07/18 03:14:14;;;;;;;5.17;2.70;;;14.90;99.90;;;;;;5039431;28;20421;-77
2023/07/18 03:16:40;;;;;;;3.67;3.37;;;14.80;99.90;;;;;;5029926;28;20755;-76
2023/07/18 03:19:07;;;;;;;3.60;3.10;;;14.90;99.90;;;;;;5039661;28;20293;-78
2023/07/18 03:21:32;;;;;;;6.97;3.63;;;15.00;99.90;;;;;;5038380;28;20209;-77
2023/07/18 03:23:58;;;;;;;7.13;3.70;;;15.20;99.90;;;;;;5038334;28;20214;-77
2023/07/18 03:26:23;;;;;;;4.53;3.07;;;15.10;99.90;;;;;;5036844;28;20207;-76
2023/07/18 03:28:49;;;;;;;5.67;3.37;;;15.00;99.90;;;;;;5033397;28;20219;-77
2023/07/18 03:31:14;;;;;;;6.07;3.80;;;15.00;99.90;;;;;;5029740;28;20429;-77
2023/07/18 03:33:40;;;;;;;7.53;3.57;;;15.00;99.90;;;;;;5033840;28;20199;-78
2023/07/18 03:36:06;;;;;;;3.40;3.10;;;14.90;99.90;;;;;;5040467;28;20195;-78
2023/07/18 03:38:31;;;;;;;3.90;3.50;;;15.00;99.90;;;;;;5036135;28;20289;-78
2023/07/18 03:40:58;;;;;;;3.57;2.83;;;15.00;99.90;;;;;;5038290;28;20194;-72
2023/07/18 03:43:23;;;;;;;5.37;3.77;;;15.10;99.90;;;;;;5038349;28;20230;-72
2023/07/18 03:45:49;;;;;;;17.53;4.17;;;15.20;99.90;;;;;;5036086;28;20226;-71
2023/07/18 03:48:14;;;;;;;4.00;3.37;;;15.20;99.90;;;;;;5036124;28;20210;-72
2023/07/18 03:50:40;;;;;;;4.93;3.20;;;15.20;99.90;;;;;;5033104;28;20215;-72
2023/07/18 03:53:05;;;;;;;4.90;3.40;;;15.00;99.90;;;;;;5037983;28;20546;-72
2023/07/18 03:55:31;;;;;;;4.27;3.53;;;15.10;99.90;;;;;;5030425;28;20207;-72
2023/07/18 03:57:56;;;;;;;3.90;3.40;;;15.20;99.90;;;;;;5035807;28;20194;-71
2023/07/18 04:00:22;;;;;;;5.90;3.57;;;15.20;99.90;;;;;;5037810;28;20673;-71
2023/07/18 04:02:49;;;;;;;5.37;3.57;;;15.20;99.90;;;;;;5037899;28;20206;-76
2023/07/18 04:05:16;;;;;;;5.83;4.13;;;15.10;99.90;;;;;;5039191;28;20210;-75
2023/07/18 04:07:43;;;;;;;3.93;3.53;;;15.20;99.90;;;;;;5032158;28;20269;-76
2023/07/18 04:10:11;;;;;;;4.73;3.40;;;15.20;99.90;;;;;;5036092;28;20202;-75
2023/07/18 04:12:37;;;;;;;5.67;3.97;;;15.20;99.90;;;;;;5038590;28;20245;-75
2023/07/18 04:15:03;;;;;;;4.50;4.07;;;15.10;99.90;;;;;;5037041;28;20282;-76
2023/07/18 04:17:28;;;;;;;6.17;3.70;;;15.20;99.90;;;;;;5031660;28;20314;-76
2023/07/18 04:19:59;;;;;;;4.43;3.23;;;15.10;99.90;;;;;;5032668;28;20233;-76
2023/07/18 04:22:24;;;;;;;4.90;3.83;;;15.10;99.90;;;;;;5032043;28;20215;-77
2023/07/18 04:24:50;;;;;;;6.53;3.33;;;14.90;99.90;;;;;;5041720;28;20316;-76
2023/07/18 04:27:16;;;;;;;4.00;3.30;;;14.90;99.90;;;;;;5041433;28;20206;-76
2023/07/18 04:29:41;;;;;;;5.20;3.63;;;15.00;99.90;;;;;;5032014;28;20210;-75
2023/07/18 04:32:07;;;;;;;8.07;4.43;;;15.20;99.90;;;;;;5020112;28;20571;-75
2023/07/18 04:34:32;;;;;;;6.03;4.23;;;14.90;99.90;;;;;;5037546;28;20329;-75
2023/07/18 04:36:58;;;;;;;4.73;3.67;;;15.00;99.90;;;;;;5037628;28;20222;-75
2023/07/18 04:39:24;;;;;;;6.23;3.87;;;15.20;99.90;;;;;;5037778;28;20198;-75
2023/07/18 04:41:49;;;;;;;7.77;3.53;;;15.30;99.90;;;;;;5035886;28;20230;-75
2023/07/18 04:44:15;;;;;;;3.23;2.93;;;15.30;99.90;;;;;;5033601;28;20452;-74
2023/07/18 04:46:41;;;;;;;4.83;3.87;;;15.40;99.90;;;;;;5031219;28;20288;-76
2023/07/18 04:49:06;;;;;;;6.47;3.60;;;15.40;99.90;;;;;;5037935;28;20563;-75
2023/07/18 04:51:32;;;;;;;4.23;3.17;;;15.50;99.90;;;;;;5038709;28;20234;-75
2023/07/18 04:53:57;;;;;;;5.23;3.37;;;15.40;99.90;;;;;;5037961;28;20191;-74
2023/07/18 04:56:23;;;;;;;4.37;3.57;;;15.40;99.90;;;;;;5037909;28;20208;-74
2023/07/18 04:58:48;;;;;;;4.23;3.50;;;15.50;99.90;;;;;;5039056;28;20203;-74
2023/07/18 05:01:14;;;;;;;3.30;3.00;;;15.50;99.90;;;;;;5037558;28;20213;-74
2023/07/18 05:03:39;;;;;;;4.43;3.30;;;15.50;99.90;;;;;;5037269;28;20222;-75
2023/07/18 05:06:04;;;;;;;5.00;3.63;;;15.70;99.90;;;;;;5037485;28;20199;-74
2023/07/18 05:08:30;;;;;;;4.53;3.87;;;15.70;99.90;;;;;;5038256;28;20245;-75
2023/07/18 05:11:03;;;;;;;4.17;3.13;;;15.60;99.90;;;;;;5039053;28;20222;-75
2023/07/18 05:13:28;;;;;;;3.93;3.40;;;15.60;99.90;;;;;;5040921;28;20550;-75
2023/07/18 05:15:54;;;;;;;5.53;3.27;;;15.70;99.90;;;;;;5041205;28;20201;-74
2023/07/18 05:18:20;;;;;;;6.10;4.23;;;15.80;99.90;;;;;;5041518;28;20291;-72
2023/07/18 05:20:45;;;;;;;6.97;3.50;;;15.90;99.90;;;;;;5041434;28;20207;-69
2023/07/18 05:23:11;;;;;;;6.53;4.07;;;15.80;99.90;;;;;;5042134;28;20203;-75
2023/07/18 05:25:37;;;;;;;7.20;4.60;;;15.70;99.90;;;;;;5031606;28;20284;-75
2023/07/18 05:28:02;;;;;;;7.63;4.13;;;15.90;99.90;;;;;;5031898;28;20226;-75
2023/07/18 05:30:28;;;;;;;5.10;3.93;;;16.00;99.90;;;;;;5040525;28;20211;-75
2023/07/18 05:32:53;;;;;;;6.13;3.77;;;16.10;99.90;;;;;;5040971;28;20218;-77
2023/07/18 05:35:19;;;;;;;6.87;4.40;;;16.20;99.90;;;;;;5040701;28;20210;-76
2023/07/18 05:37:44;;;;;;;5.27;4.20;;;16.20;99.90;;;;;;5037382;28;20221;-70
2023/07/18 05:40:11;;;;;;;5.70;3.50;;;16.20;99.90;;;;;;5038695;28;20191;-76
2023/07/18 05:42:37;;;;;;;8.13;3.63;;;16.10;99.90;;;;;;5041631;28;20210;-74
2023/07/18 05:45:05;;;;;;;4.47;3.50;;;16.30;99.90;;;;;;5031841;28;20776;-77
2023/07/18 05:47:30;;;;;;;3.90;3.57;;;16.40;99.90;;;;;;5036452;28;20191;-76
2023/07/18 05:49:55;;;;;;;5.13;3.70;;;16.50;99.90;;;;;;5039337;28;20287;-77
2023/07/18 05:52:21;;;;;;;8.43;4.60;;;16.50;99.90;;;;;;5033353;28;20210;-78
2023/07/18 05:54:47;;;;;;;5.20;4.70;;;16.40;99.90;;;;;;5036543;28;20227;-68
2023/07/18 05:57:13;;;;;;;7.23;4.27;;;16.40;99.90;;;;;;5037743;28;20233;-76
2023/07/18 05:59:39;;;;;;;7.23;4.47;;;16.40;99.90;;;;;;5046197;28;20213;-70
2023/07/18 06:02:05;;;;;;;4.80;4.40;;;16.50;99.90;;;;;;5040641;28;20212;-81
2023/07/18 06:04:30;;;;;;;6.70;4.57;;;16.50;99.90;;;;;;5040998;28;20708;-67
2023/07/18 06:06:56;;;;;;;5.90;4.27;;;16.40;99.90;;;;;;5041876;28;20298;-79
2023/07/18 06:09:22;;;;;;;5.80;3.57;;;16.30;99.90;;;;;;5033354;28;20318;-79
2023/07/18 06:11:47;;;;;;;6.33;3.60;;;16.30;99.90;;;;;;5041812;28;20291;-79
2023/07/18 06:14:14;;;;;;;3.97;3.30;;;16.40;99.90;;;;;;5042903;28;20223;-80
2023/07/18 06:16:39;;;;;;;5.93;3.90;;;16.40;99.90;;;;;;5044306;28;20187;-80
2023/07/18 06:19:05;;;;;;;7.83;4.20;;;16.60;99.90;;;;;;5036176;28;20594;-69
2023/07/18 06:21:30;;;;;;;8.37;4.70;;;16.60;99.90;;;;;;5036369;28;20301;-70
2023/07/18 06:23:57;;;;;;;5.03;3.57;;;16.70;99.90;;;;;;5038110;28;20228;-70
2023/07/18 06:26:22;;;;;;;5.30;4.40;;;17.00;99.90;;;;;;5035984;28;20252;-68
2023/07/18 06:28:49;;;;;;;6.30;4.57;;;17.00;99.90;;;;;;5035818;28;20218;-68
2023/07/18 06:31:15;;;;;;;5.67;3.67;;;17.20;99.90;;;;;;5035727;28;20236;-70
2023/07/18 06:33:41;;;;;;;5.00;3.60;;;17.10;99.90;;;;;;5038978;28;20191;-68
2023/07/18 06:36:07;;;;;;;5.67;4.10;;;17.10;99.90;;;;;;5038790;28;20693;-68
2023/07/18 06:38:32;;;;;;;6.00;4.37;;;17.10;99.90;;;;;;5038340;28;20226;-69
2023/07/18 06:40:58;;;;;;;4.30;3.43;;;17.30;99.90;;;;;;5038988;28;20194;-69
2023/07/18 06:43:24;;;;;;;4.00;3.60;;;17.50;99.90;;;;;;5036890;28;20686;-69
2023/07/18 06:45:50;;;;;;;3.87;3.50;;;17.80;99.90;;;;;;5038978;28;20911;-70
2023/07/18 06:48:16;;;;;;;7.43;4.20;;;17.70;99.90;;;;;;5038705;28;20229;-68
2023/07/18 06:50:47;;;;;;;8.13;4.50;;;17.70;99.90;;;;;;5038872;28;20264;-69
2023/07/18 06:53:20;;;;;;;5.00;3.70;;;17.50;99.90;;;;;;5035211;28;20203;-67
2023/07/18 06:55:48;;;;;;;5.37;4.03;;;17.50;99.90;;;;;;5038304;28;20775;-67
2023/07/18 06:58:14;;;;;;;8.33;4.27;;;17.60;99.90;;;;;;5038289;28;20565;-67
2023/07/18 07:00:40;;;;;;;8.13;4.10;;;17.60;99.90;;;;;;5037634;28;20253;-67
2023/07/18 07:03:09;;;;;;;4.03;3.63;;;17.70;99.90;;;;;;5032987;28;21023;-73
2023/07/18 07:05:39;;;;;;;7.07;3.93;;;17.80;99.90;;;;;;5037646;28;20204;-72
2023/07/18 07:08:08;;;;;;;7.40;4.20;;;18.10;99.90;;;;;;5034843;28;20280;-74
2023/07/18 07:10:38;;;;;;;5.00;4.37;;;18.30;99.90;;;;;;5033311;28;20903;-68
2023/07/18 07:13:03;;;;;;;7.73;4.10;;;18.30;99.90;;;;;;5034613;28;20724;-69
2023/07/18 07:15:29;;;;;;;8.23;4.20;;;18.20;99.90;;;;;;5037479;28;20201;-65
2023/07/18 07:17:54;;;;;;;5.97;3.93;;;18.20;99.90;;;;;;5034218;28;20205;-67
2023/07/18 07:20:20;;;;;;;6.20;4.03;;;18.30;99.90;;;;;;5037071;28;20208;-67
2023/07/18 07:22:47;;;;;;;5.63;3.37;;;18.30;99.90;;;;;;5037163;28;20926;-67
2023/07/18 07:25:14;;;;;;;4.90;3.60;;;18.50;99.90;;;;;;5036629;28;20239;-66
2023/07/18 07:27:40;;;;;;;6.83;3.90;;;18.50;99.90;;;;;;5032278;28;20220;-66
2023/07/18 07:30:07;;;;;;;5.03;4.10;;;18.50;99.90;;;;;;5034662;28;20266;-70
2023/07/18 07:32:32;;;;;;;4.73;4.10;;;18.70;99.90;;;;;;5035486;28;20200;-68
2023/07/18 07:34:58;;;;;;;3.70;3.40;;;18.70;99.90;;;;;;5034294;28;20242;-77
2023/07/18 07:37:23;;;;;;;4.73;4.03;;;18.70;99.90;;;;;;5038066;28;20216;-77
2023/07/18 07:39:49;;;;;;;6.43;3.60;;;18.60;99.90;;;;;;5034760;28;20201;-77
2023/07/18 07:42:15;;;;;;;7.37;4.20;;;18.80;99.90;;;;;;5043074;28;20273;-72
2023/07/18 07:44:40;;;;;;;6.93;3.80;;;18.70;99.90;;;;;;5037017;28;20850;-66
2023/07/18 07:47:06;;;;;;;5.50;3.80;;;18.60;99.90;;;;;;5032536;28;20215;-68
2023/07/18 07:49:31;;;;;;;6.20;4.47;;;18.70;99.90;;;;;;5036000;28;20304;-78
2023/07/18 07:52:00;;;;;;;11.23;4.27;;;18.70;99.90;;;;;;5038200;28;20836;-79
2023/07/18 07:54:25;;;;;;;8.23;4.00;;;18.80;99.90;;;;;;5052081;28;20213;-82
2023/07/18 07:56:51;;;;;;;4.57;3.00;;;19.00;99.90;;;;;;5041457;28;20549;-76
2023/07/18 07:59:16;;;;;;;7.97;3.57;;;19.00;99.90;;;;;;5034649;28;20238;-69
2023/07/18 08:01:41;;;;;;;7.20;3.60;;;19.10;99.90;;;;;;5032900;28;20205;-70
2023/07/18 08:04:08;;;;;;;6.57;3.33;;;19.30;99.90;;;;;;5035665;28;20202;-78
2023/07/18 08:06:34;;;;;;;3.97;3.23;;;19.30;99.90;;;;;;5036002;28;20208;-79
2023/07/18 08:09:02;;;;;;;6.07;3.13;;;19.10;99.90;;;;;;5037559;28;20232;-79
2023/07/18 08:11:27;;;;;;;4.77;3.13;;;19.00;99.90;;;;;;5034922;28;20631;-79
2023/07/18 08:13:53;;;;;;;4.90;2.80;;;19.30;99.90;;;;;;5038824;28;20205;-79
2023/07/18 08:16:19;;;;;;;5.80;2.70;;;19.30;99.90;;;;;;5036804;28;20214;-79
2023/07/18 08:18:45;;;;;;;9.03;3.37;;;19.40;99.90;;;;;;5030538;28;20222;-65
2023/07/18 08:21:11;;;;;;;7.13;2.77;;;19.40;99.90;;;;;;5031208;28;20222;-68
2023/07/18 08:23:36;;;;;;;5.00;2.90;;;19.40;99.90;;;;;;5013653;28;20217;-72
2023/07/18 08:26:02;;;;;;;5.30;3.13;;;19.40;99.90;;;;;;5032242;28;20220;-75
2023/07/18 08:28:28;;;;;;;7.43;3.13;;;19.30;99.90;;;;;;5041882;28;20236;-72
2023/07/18 08:30:53;;;;;;;4.93;2.43;;;19.50;99.90;;;;;;5042588;28;20213;-83
2023/07/18 08:33:19;;;;;;;5.53;3.10;;;19.60;99.90;;;;;;5045953;28;20275;-85
2023/07/18 08:35:45;;;;;;;5.63;2.63;;;19.70;99.90;;;;;;5019119;28;20342;-84
2023/07/18 08:38:11;;;;;;;4.30;2.13;;;19.80;99.90;;;;;;5042815;28;20209;-75
2023/07/18 08:40:42;;;;;;;4.83;2.77;;;19.70;99.90;;;;;;5032964;28;20201;-67
2023/07/18 08:43:13;;;;;;;8.13;2.90;;;19.50;99.90;;;;;;5035713;28;20587;-83
2023/07/18 08:45:39;;;;;;;5.33;2.97;;;19.50;99.90;;;;;;5041668;28;20203;-78
2023/07/18 08:48:05;;;;;;;6.53;2.70;;;19.60;99.90;;;;;;5040993;28;20209;-75
2023/07/18 08:50:32;;;;;;;3.87;2.00;;;20.00;99.90;;;;;;5036646;28;20638;-74
2023/07/18 08:53:04;;;;;;;5.10;2.13;;;20.20;99.90;;;;;;5036028;28;20197;-76
2023/07/18 08:55:30;;;;;;;5.03;2.30;;;20.40;99.90;;;;;;5037938;28;20260;-77
2023/07/18 08:58:02;;;;;;;4.23;2.73;;;20.40;99.90;;;;;;5039059;28;20539;-72
2023/07/18 09:00:28;;;;;;;3.27;2.43;;;20.50;99.90;;;;;;5037376;28;20198;-72
2023/07/18 09:02:54;;;;;;;3.67;2.00;;;20.40;99.90;;;;;;5037220;28;20392;-79
2023/07/18 09:05:37;;;;;;;3.50;2.30;;;20.20;99.90;;;;;;5018208;28;20359;-79
2023/07/18 09:08:04;;;;;;;7.73;2.30;;;20.20;99.90;;;;;;5034197;28;20302;-80
2023/07/18 09:10:31;;;;;;;3.23;2.10;;;20.40;99.90;;;;;;5041369;28;20311;-78
2023/07/18 09:13:01;;;;;;;4.00;2.70;;;20.60;99.10;;;;;;5040619;28;20226;-78
2023/07/18 09:15:27;;;;;;;5.13;2.10;;;20.70;98.60;;;;;;5041373;28;20625;-78
2023/07/18 09:17:59;;;;;;;4.73;2.47;;;20.80;98.00;;;;;;5035694;28;20300;-78
2023/07/18 09:20:26;;;;;;;2.90;2.17;;;20.90;98.10;;;;;;5040795;28;20206;-79
2023/07/18 09:23:03;;;;;;;2.30;1.90;;;20.80;99.30;;;;;;5038249;28;20179;-76
2023/07/18 09:25:29;;;;;;;2.77;1.87;;;20.60;97.70;;;;;;5050788;28;20518;-81
2023/07/18 09:27:56;;;;;;;3.70;2.13;;;20.50;97.70;;;;;;5039813;28;20225;-76
2023/07/18 09:30:34;;;;;;;3.83;1.90;;;20.60;97.90;;;;;;5038886;28;20372;-76
2023/07/18 09:33:04;;;;;;;4.43;2.13;;;20.90;97.80;;;;;;5036036;28;20221;-73
2023/07/18 09:35:30;;;;;;;3.37;1.80;;;21.10;98.40;;;;;;5039133;28;20510;-71
2023/07/18 09:37:59;;;;;;;4.73;2.17;;;21.10;97.30;;;;;;5039802;28;20194;-70
2023/07/18 09:40:25;;;;;;;4.47;2.27;;;20.80;97.50;;;;;;5039885;28;20195;-71
2023/07/18 09:42:50;;;;;;;5.63;2.33;;;20.80;97.70;;;;;;5034594;28;20287;-69
2023/07/18 09:45:17;;;;;;;6.70;2.47;;;20.80;97.10;;;;;;5039463;28;20202;-74
2023/07/18 09:47:44;;;;;;;3.80;1.93;;;21.00;96.90;;;;;;5046478;28;20680;-79
2023/07/18 09:50:12;;;;;;;1.90;1.50;;;21.10;95.80;;;;;;5028269;28;20229;-77
2023/07/18 09:52:41;;;;;;;4.53;2.10;;;21.10;95.00;;;;;;5041094;28;20190;-78
2023/07/18 09:55:09;;;;;;;4.40;1.70;;;21.10;95.60;;;;;;5039440;28;20669;-78
2023/07/18 09:57:38;;;;;;;2.77;1.67;;;21.30;95.60;;;;;;5044467;28;20217;-83
2023/07/18 10:00:09;;;;;;;2.60;2.03;;;21.40;94.70;;;;;;5056819;28;20191;-82
2023/07/18 10:02:35;;;;;;;11.43;9.33;;;21.60;94.20;;;;;;5042755;28;20205;-76
2023/07/18 10:05:04;;;;;;;3.33;2.37;;;21.60;95.50;;;;;;5043978;28;20199;-80
2023/07/18 10:07:34;;;;;;;1.87;1.73;;;21.60;93.80;;;;;;5041567;28;20215;-82
2023/07/18 10:10:01;;;;;;;1.93;1.77;;;21.60;92.60;;;;;;5038771;28;20231;-74
2023/07/18 10:12:27;;;;;;;3.13;1.50;;;21.70;92.70;;;;;;5035336;28;20253;-73
2023/07/18 10:14:57;;;;;;;2.50;1.97;;;21.80;92.30;;;;;;5037516;28;20195;-81
2023/07/18 10:17:34;;;;;;;1.57;1.43;;;21.80;91.10;;;;;;5038561;28;20676;-84
2023/07/18 10:20:04;;;;;;;3.00;2.00;;;21.80;90.80;;;;;;5037720;28;20209;-76
2023/07/18 10:22:30;;;;;;;3.67;1.40;;;21.80;90.80;;;;;;5024651;28;20782;-78
2023/07/18 10:24:59;;;;;;;1.87;1.60;;;21.90;90.50;;;;;;5041539;28;20206;-69
2023/07/18 10:27:42;;;;;;;3.23;2.17;;;22.10;90.50;;;;;;5035563;28;20202;-68
2023/07/18 10:30:12;;;;;;;5.47;2.70;;;22.10;92.00;;;;;;5036238;28;20225;-70
2023/07/18 10:32:39;;;;;;;2.87;2.03;;;22.10;91.20;;;;;;5040434;28;20195;-78
2023/07/18 10:35:07;;;;;;;2.87;2.00;;;22.20;90.90;;;;;;5041089;28;20186;-75
2023/07/18 10:37:33;;;;;;;3.00;1.60;;;22.10;91.00;;;;;;5039020;28;20201;-75
2023/07/18 10:39:59;;;;;;;2.27;1.90;;;22.10;90.80;;;;;;5036043;28;20202;-75
2023/07/18 10:42:30;;;;;;;9.47;1.70;;;22.20;90.80;;;;;;5039414;28;20617;-69
2023/07/18 10:45:03;;;;;;;3.90;1.90;;;22.00;90.80;;;;;;5034241;28;20238;-71
2023/07/18 10:47:29;;;;;;;2.73;2.20;;;22.10;90.70;;;;;;5035056;28;20221;-70
2023/07/18 10:49:55;;;;;;;4.40;1.57;;;22.20;89.70;;;;;;5011259;28;20218;-68
2023/07/18 10:52:21;;;;;;;4.37;2.10;;;22.30;88.90;;;;;;5031330;28;20359;-80
2023/07/18 10:54:57;;;;;;;4.73;1.63;;;22.50;88.90;;;;;;5040571;28;20198;-81
2023/07/18 10:57:24;;;;;;;4.00;1.70;;;22.40;87.30;;;;;;5026818;28;20262;-83
2023/07/18 10:59:51;;;;;;;2.50;1.63;;;22.50;87.20;;;;;;5031852;28;20227;-82
2023/07/18 11:02:19;;;;;;;2.90;1.80;;;22.60;85.40;;;;;;5031931;28;20577;-71
2023/07/18 11:04:45;;;;;;;2.03;1.40;;;22.70;87.10;;;;;;5036900;28;20446;-71
2023/07/18 11:07:10;;;;;;;1.77;1.30;;;22.90;85.00;;;;;;5038712;28;20877;-75
2023/07/18 11:09:36;;;;;;;4.18;2.22;;;22.80;84.80;;;;;;5028631;28;20218;-75
2023/07/18 11:12:03;;;;;;;3.80;1.60;;;22.90;86.60;;;;;;5034182;28;20222;-75
2023/07/18 11:14:38;;;;;;;3.43;1.53;;;22.90;87.90;;;;;;5042046;28;20677;-80
2023/07/18 11:17:10;;;;;;;2.90;2.10;;;23.50;83.80;;;;;;5029618;28;20658;-79
2023/07/18 11:19:36;;;;;;;2.15;1.75;;;23.70;83.70;;;;;;5051410;28;20264;-82
2023/07/18 11:22:01;;;;;;;2.28;1.58;;;23.60;83.60;;;;;;5049449;28;20353;-78
2023/07/18 11:24:28;;;;;;;2.25;2.10;;;23.60;82.40;;;;;;5050704;28;20210;-80
2023/07/18 11:27:17;;;;;;;2.40;2.20;;;23.60;82.60;;;;;;5058945;28;20397;-81
2023/07/18 11:29:59;;;;;;;2.40;1.75;;;23.90;82.70;;;;;;5051468;28;20341;-82
2023/07/18 11:32:45;;;;;;;2.35;1.40;;;24.20;81.90;;;;;;5044229;28;20599;-79
2023/07/18 11:35:18;;;;;;;2.67;1.90;;;24.00;81.60;;;;;;5031640;28;20202;-76
2023/07/18 11:37:45;;;;;;;12.48;2.50;;;24.20;82.60;;;;;;5038624;28;20188;-77
2023/07/18 11:40:17;;;;;;;4.18;1.88;;;24.40;81.40;;;;;;5036324;28;20208;-78
2023/07/18 11:42:52;;;;;;;1.83;1.33;;;24.50;81.00;;;;;;5033610;28;20287;-80
2023/07/18 11:45:23;;;;;;;2.70;1.92;;;24.60;76.30;;;;;;5038053;28;20210;-78
2023/07/18 11:47:52;;;;;;;1.45;1.35;;;24.70;74.20;;;;;;5038822;28;20636;-77
2023/07/18 11:50:18;;;;;;;5.10;2.60;;;25.00;73.60;;;;;;5043347;28;20475;-80
2023/07/18 11:52:52;;;;;;;2.70;2.03;;;25.50;71.30;;;;;;5046577;28;20261;-81
2023/07/18 11:55:19;;;;;;;2.05;1.60;;;25.40;72.00;;;;;;5049993;28;20199;-78
2023/07/18 11:57:45;;;;;;;3.25;1.98;;;25.00;72.30;;;;;;5039971;28;20745;-74
2023/07/18 12:00:12;;;;;;;2.75;1.88;;;24.90;74.20;;;;;;5037812;28;20208;-73
2023/07/18 12:02:37;;;;;;;2.35;1.42;;;25.10;72.80;;;;;;5038357;28;20206;-73
2023/07/18 12:05:05;;;;;;;1.77;1.67;;;25.00;72.50;;;;;;5033299;28;20193;-74
2023/07/18 12:07:31;;;;;;;3.83;2.17;;;25.00;71.30;;;;;;5033916;28;20197;-73
2023/07/18 12:09:56;;;;;;;2.80;1.90;;;24.90;72.00;;;;;;5031458;28;20702;-73
2023/07/18 12:12:23;;;;;;;2.28;1.65;;;25.00;71.90;;;;;;5009829;28;20252;-74
2023/07/18 12:14:52;;;;;;;3.47;2.10;;;24.90;71.30;;;;;;5034833;28;20200;-74
2023/07/18 12:17:18;;;;;;;3.15;1.80;;;24.60;71.00;;;;;;5033208;28;20236;-74
2023/07/18 12:19:44;;;;;;;4.97;1.88;;;24.50;71.90;;;;;;5037273;28;20889;-73
2023/07/18 12:22:13;;;;;;;4.03;1.90;;;24.00;74.80;;;;;;5038154;28;20222;-75
2023/07/18 12:24:39;;;;;;;2.53;1.60;;;24.20;71.30;;;;;;5037499;28;20209;-75
2023/07/18 12:27:05;;;;;;;2.53;1.67;;;24.30;71.20;;;;;;5037471;28;20666;-75
2023/07/18 12:29:31;;;;;;;4.53;2.05;;;24.70;72.20;;;;;;5028270;28;20219;-74
2023/07/18 12:31:56;;;;;;;2.17;1.65;;;25.00;72.00;;;;;;5028312;28;20279;-75
2023/07/18 12:34:22;;;;;;;3.85;1.73;;;24.60;72.60;;;;;;5037866;28;20721;-75
2023/07/18 12:36:48;;;;;;;4.28;2.20;;;24.10;72.50;;;;;;5039887;28;20196;-73
2023/07/18 12:39:15;;;;;;;2.47;1.52;;;24.00;71.60;;;;;;5038672;28;20195;-81
2023/07/18 12:41:41;;;;;;;2.45;1.70;;;24.30;70.20;;;;;;5051699;28;20196;-77
2023/07/18 12:44:07;;;;;;;2.13;1.55;;;24.20;71.30;;;;;;5044465;28;20241;-80